Time;durP1;ratioP1;P1;durP2;ratioP2;P2;SDS_P1;SDS_P2;PMS_P1;PMS_P2;Temp;Humidity;BMP_temperature;BMP_pressure;BME280_temperature;BME280_humidity;BME280_pressure;Samples;Min_cycle;Max_cycle;Signal;HPM_P1;HPM_P2
2022/07/23 00:01:24;;;;;;;30.10;27.00;;;;;;;21.13;100.00;98924.63;105192;1271;61349;-72
2022/07/23 00:03:51;;;;;;;28.80;26.00;;;;;;;21.11;100.00;98929.52;104966;1271;61317;-73
2022/07/23 00:06:17;;;;;;;28.70;25.80;;;;;;;21.10;100.00;98925.99;105291;1271;72747;-73
2022/07/23 00:08:43;;;;;;;30.20;27.00;;;;;;;21.09;100.00;98927.38;105205;1271;62889;-72
2022/07/23 00:11:10;;;;;;;29.80;26.80;;;;;;;21.09;100.00;98934.29;105155;1271;61265;-73
2022/07/23 00:13:36;;;;;;;28.30;25.50;;;;;;;21.08;100.00;98936.73;105214;1271;61396;-72
2022/07/23 00:16:02;;;;;;;28.70;26.00;;;;;;;21.02;100.00;98935.86;105160;1271;61302;-72
2022/07/23 00:18:29;;;;;;;30.20;27.10;;;;;;;20.96;100.00;98930.52;105161;1271;61390;-73
2022/07/23 00:20:55;;;;;;;30.10;27.20;;;;;;;20.92;100.00;98927.88;105180;1269;61267;-73
2022/07/23 00:23:21;;;;;;;29.80;26.70;;;;;;;20.93;100.00;98938.03;104930;1271;61378;-73
2022/07/23 00:25:47;;;;;;;30.20;27.30;;;;;;;20.92;100.00;98942.30;105185;1271;61416;-73
2022/07/23 00:28:12;;;;;;;29.20;26.60;;;;;;;20.91;100.00;98941.49;105218;1271;61378;-73
2022/07/23 00:30:38;;;;;;;31.40;28.30;;;;;;;20.91;100.00;98938.08;105050;1271;61384;-73
2022/07/23 00:33:06;;;;;;;28.50;26.00;;;;;;;20.90;100.00;98939.05;104861;1271;61209;-73
2022/07/23 00:35:40;;;;;;;28.80;25.90;;;;;;;20.89;100.00;98939.36;105241;1269;76163;-72
2022/07/23 00:38:09;;;;;;;30.20;27.30;;;;;;;20.85;100.00;98935.09;105290;1270;69357;-72
2022/07/23 00:40:36;;;;;;;30.90;27.70;;;;;;;20.80;100.00;98935.44;105187;1271;73296;-72
2022/07/23 00:43:03;;;;;;;29.90;27.30;;;;;;;20.78;100.00;98934.59;105241;1271;63015;-73
2022/07/23 00:45:30;;;;;;;31.90;28.80;;;;;;;20.75;100.00;98934.92;105193;1271;61164;-72
2022/07/23 00:47:57;;;;;;;31.90;28.80;;;;;;;20.73;100.00;98935.03;105228;1271;75303;-72
2022/07/23 00:50:24;;;;;;;29.90;27.00;;;;;;;20.73;100.00;98941.91;105188;1271;61227;-73
2022/07/23 00:52:50;;;;;;;28.50;25.80;;;;;;;20.72;100.00;98941.79;105212;1271;73338;-73
2022/07/23 00:55:16;;;;;;;29.50;26.80;;;;;;;20.68;100.00;98939.35;105181;1271;61389;-73
2022/07/23 00:57:42;;;;;;;31.10;28.00;;;;;;;20.64;100.00;98936.51;105198;1271;61384;-74
2022/07/23 01:00:12;;;;;;;29.30;26.40;;;;;;;20.60;100.00;98941.08;105230;1271;61483;-74
2022/07/23 01:02:39;;;;;;;30.50;27.70;;;;;;;20.56;100.00;98939.15;105266;1271;69193;-73
2022/07/23 01:05:05;;;;;;;29.30;26.40;;;;;;;20.53;100.00;98937.88;105281;1271;73296;-73
2022/07/23 01:07:32;;;;;;;30.00;27.10;;;;;;;20.48;100.00;98932.81;105197;1271;61670;-73
2022/07/23 01:09:59;;;;;;;29.60;26.50;;;;;;;20.44;100.00;98929.32;105255;1271;61599;-72
2022/07/23 01:12:25;;;;;;;30.60;27.70;;;;;;;20.43;100.00;98936.26;105187;1271;61305;-72
2022/07/23 01:14:58;;;;;;;28.90;26.20;;;;;;;20.41;100.00;98937.00;105225;1269;61825;-72
2022/07/23 01:17:24;;;;;;;29.60;26.80;;;;;;;20.38;100.00;98933.17;105218;1270;74340;-72
2022/07/23 01:19:50;;;;;;;31.10;28.20;;;;;;;20.36;100.00;98931.44;104997;1271;61388;-72
2022/07/23 01:22:19;;;;;;;27.60;25.00;;;;;;;20.33;100.00;98935.94;105214;1271;61534;-73
2022/07/23 01:24:46;;;;;;;29.30;26.60;;;;;;;20.27;100.00;98943.27;104951;1271;75396;-72
2022/07/23 01:27:12;;;;;;;28.00;25.30;;;;;;;20.18;100.00;98941.45;105184;1271;70467;-73
2022/07/23 01:29:39;;;;;;;27.80;25.00;;;;;;;20.10;100.00;98937.27;105185;1269;73803;-73
2022/07/23 01:32:06;;;;;;;28.10;25.60;;;;;;;20.07;100.00;98932.02;104945;1271;61285;-72
2022/07/23 01:34:32;;;;;;;26.80;24.20;;;;;;;20.05;100.00;98933.50;105190;1271;61242;-72
2022/07/23 01:36:58;;;;;;;27.40;24.90;;;;;;;20.01;100.00;98935.02;105161;1271;61278;-73
2022/07/23 01:39:24;;;;;;;28.40;25.70;;;;;;;19.96;100.00;98933.79;105184;1271;61405;-72
2022/07/23 01:41:50;;;;;;;30.90;27.70;;;;;;;19.87;100.00;98928.78;105198;1271;61384;-72
2022/07/23 01:44:16;;;;;;;32.10;29.00;;;;;;;19.77;100.00;98927.69;105179;1271;61351;-72
2022/07/23 01:46:42;;;;;;;30.30;27.50;;;;;;;19.68;100.00;98928.54;105220;1269;61289;-73
2022/07/23 01:49:08;;;;;;;31.00;28.20;;;;;;;19.66;100.00;98928.47;105250;1271;61375;-72
2022/07/23 01:51:34;;;;;;;30.50;27.80;;;;;;;19.65;100.00;98933.06;105198;1271;61281;-73
2022/07/23 01:54:00;;;;;;;32.80;29.70;;;;;;;19.64;100.00;98934.75;105212;1271;61394;-73
2022/07/23 01:56:26;;;;;;;32.80;29.50;;;;;;;19.63;100.00;98937.20;105203;1271;61169;-73
2022/07/23 01:58:52;;;;;;;33.60;30.20;;;;;;;19.62;100.00;98935.88;104904;1270;61346;-73
2022/07/23 02:01:18;;;;;;;31.60;28.40;;;;;;;19.61;100.00;98932.42;105231;1271;61320;-72
2022/07/23 02:03:44;;;;;;;32.30;29.40;;;;;;;19.60;100.00;98929.31;105183;1271;61390;-73
2022/07/23 02:06:10;;;;;;;32.70;29.70;;;;;;;19.58;100.00;98932.91;105191;1271;61507;-72
2022/07/23 02:08:36;;;;;;;36.20;32.70;;;;;;;19.55;100.00;98932.13;105184;1271;61358;-72
2022/07/23 02:11:02;;;;;;;34.00;30.70;;;;;;;19.53;100.00;98933.54;105003;1271;61358;-72
2022/07/23 02:13:29;;;;;;;33.20;30.10;;;;;;;19.51;100.00;98931.77;105213;1271;61793;-72
2022/07/23 02:15:55;;;;;;;33.90;30.80;;;;;;;19.50;100.00;98928.64;105219;1271;61564;-71
2022/07/23 02:18:21;;;;;;;35.30;31.90;;;;;;;19.48;100.00;98934.46;105220;1271;61392;-73
2022/07/23 02:20:47;;;;;;;32.10;29.10;;;;;;;19.44;100.00;98936.20;105202;1270;61377;-72
2022/07/23 02:23:13;;;;;;;33.80;30.00;;;;;;;19.40;100.00;98939.46;104945;1271;61369;-72
2022/07/23 02:25:39;;;;;;;32.70;29.40;;;;;;;19.37;100.00;98943.34;105168;1271;61291;-73
2022/07/23 02:28:05;;;;;;;31.50;28.50;;;;;;;19.35;100.00;98941.78;105165;1271;61358;-72
2022/07/23 02:30:31;;;;;;;33.20;29.70;;;;;;;19.34;100.00;98944.32;105186;1270;61261;-72
2022/07/23 02:32:57;;;;;;;32.70;29.70;;;;;;;19.32;100.00;98941.98;105179;1271;61447;-72
2022/07/23 02:35:23;;;;;;;31.70;28.70;;;;;;;19.30;100.00;98938.15;104963;1271;61378;-72
2022/07/23 02:37:49;;;;;;;32.20;29.20;;;;;;;19.28;100.00;98941.06;105184;1270;61291;-72
2022/07/23 02:40:15;;;;;;;33.90;30.70;;;;;;;19.26;100.00;98940.15;105181;1271;61351;-73
2022/07/23 02:42:42;;;;;;;28.90;26.20;;;;;;;19.23;100.00;98939.59;105150;1271;61281;-73
2022/07/23 02:45:08;;;;;;;30.10;27.30;;;;;;;19.16;100.00;98938.22;105204;1271;61473;-72
2022/07/23 02:47:34;;;;;;;34.00;30.70;;;;;;;19.13;100.00;98936.00;104886;1271;61413;-72
2022/07/23 02:50:00;;;;;;;33.50;30.40;;;;;;;19.15;100.00;98935.98;105165;1271;61292;-72
2022/07/23 02:52:26;;;;;;;31.20;28.40;;;;;;;19.17;100.00;98937.86;105202;1271;61281;-73
2022/07/23 02:54:52;;;;;;;35.10;31.60;;;;;;;19.18;100.00;98936.21;105183;1270;61341;-72
2022/07/23 02:57:18;;;;;;;33.50;30.40;;;;;;;19.19;100.00;98935.70;105209;1270;61285;-73
2022/07/23 02:59:43;;;;;;;32.10;29.20;;;;;;;19.20;100.00;98938.78;105174;1271;61369;-73
2022/07/23 03:02:09;;;;;;;32.30;29.40;;;;;;;19.22;100.00;98936.46;105229;1271;61375;-72
2022/07/23 03:04:36;;;;;;;30.20;27.30;;;;;;;19.24;100.00;98935.57;105182;1271;61380;-72
2022/07/23 03:07:01;;;;;;;29.90;27.00;;;;;;;19.25;100.00;98929.55;105200;1271;61339;-72
2022/07/23 03:09:27;;;;;;;27.70;25.10;;;;;;;19.25;100.00;98930.32;105172;1271;61263;-73
2022/07/23 03:11:54;;;;;;;26.90;24.60;;;;;;;19.25;100.00;98929.33;105229;1271;61377;-72
2022/07/23 03:14:19;;;;;;;31.80;28.90;;;;;;;19.25;100.00;98926.45;105152;1271;61386;-73
2022/07/23 03:16:45;;;;;;;32.10;29.30;;;;;;;19.28;100.00;98927.73;105213;1271;61628;-73
2022/07/23 03:19:12;;;;;;;27.50;24.90;;;;;;;19.33;100.00;98925.22;105181;1270;74645;-73
2022/07/23 03:21:40;;;;;;;26.50;23.70;;;;;;;19.37;100.00;98922.33;105150;1271;61453;-73
2022/07/23 03:24:08;;;;;;;24.30;22.10;;;;;;;19.39;100.00;98923.70;105207;1271;61263;-72
2022/07/23 03:26:35;;;;;;;27.10;24.20;;;;;;;19.41;100.00;98926.80;105022;1271;75169;-72
2022/07/23 03:29:03;;;;;;;24.20;22.10;;;;;;;19.43;100.00;98928.52;105194;1271;61307;-72
2022/07/23 03:31:31;;;;;;;23.30;21.30;;;;;;;19.47;100.00;98935.11;105356;1269;73419;-72
2022/07/23 03:33:58;;;;;;;22.20;20.30;;;;;;;19.54;100.00;98930.27;105184;1271;61404;-73
2022/07/23 03:36:24;;;;;;;23.10;20.80;;;;;;;19.72;100.00;98931.38;105156;1271;61920;-72
2022/07/23 03:38:50;;;;;;;25.10;22.70;;;;;;;20.22;100.00;98929.91;105410;1271;74239;-73
2022/07/23 03:41:18;;;;;;;27.50;24.80;;;;;;;20.80;100.00;98929.73;104887;1271;61490;-73
2022/07/23 03:43:44;;;;;;;26.00;23.60;;;;;;;21.34;100.00;98929.08;105387;1271;73262;-74
2022/07/23 03:46:09;;;;;;;25.00;22.70;;;;;;;21.85;100.00;98927.08;105301;1271;61345;-73
2022/07/23 03:48:36;;;;;;;26.00;23.70;;;;;;;22.28;100.00;98927.05;105328;1271;61337;-72
2022/07/23 03:51:02;;;;;;;23.70;21.50;;;;;;;22.71;100.00;98920.39;105387;1271;61297;-73
2022/07/23 03:53:28;;;;;;;23.10;21.10;;;;;;;23.13;100.00;98915.69;105176;1270;61381;-73
2022/07/23 03:55:55;;;;;;;22.80;21.00;;;;;;;23.50;100.00;98908.87;105206;1271;61348;-73
2022/07/23 03:58:21;;;;;;;23.70;21.80;;;;;;;23.86;100.00;98912.30;105219;1271;61276;-73
2022/07/23 04:00:46;;;;;;;22.20;20.30;;;;;;;24.25;100.00;98915.57;105224;1271;61278;-73
2022/07/23 04:03:13;;;;;;;24.40;22.40;;;;;;;24.62;100.00;98917.48;105240;1270;61375;-74
2022/07/23 04:05:39;;;;;;;23.50;21.40;;;;;;;24.97;100.00;98917.68;105204;1271;61279;-73
2022/07/23 04:08:05;;;;;;;23.80;21.70;;;;;;;25.32;100.00;98915.45;104966;1271;61553;-73
2022/07/23 04:10:31;;;;;;;23.70;21.70;;;;;;;25.72;100.00;98911.99;105215;1271;61297;-73
2022/07/23 04:12:57;;;;;;;22.60;20.70;;;;;;;26.10;100.00;98911.55;105176;1271;61423;-72
2022/07/23 04:15:23;;;;;;;22.60;20.80;;;;;;;26.44;100.00;98913.24;105208;1271;61348;-73
2022/07/23 04:17:49;;;;;;;22.80;20.80;;;;;;;26.76;100.00;98907.42;105173;1270;61280;-72
2022/07/23 04:20:15;;;;;;;22.40;20.70;;;;;;;27.18;100.00;98909.63;105186;1271;61290;-73
2022/07/23 04:22:41;;;;;;;22.40;20.50;;;;;;;27.56;100.00;98912.94;105176;1271;61387;-73
2022/07/23 04:25:07;;;;;;;21.20;19.40;;;;;;;27.96;100.00;98912.42;105179;1271;61288;-73
2022/07/23 04:27:33;;;;;;;21.50;19.60;;;;;;;28.29;100.00;98909.27;104915;1271;61333;-73
2022/07/23 04:29:59;;;;;;;19.90;18.00;;;;;;;28.60;100.00;98904.55;105169;1271;61607;-73
2022/07/23 04:32:25;;;;;;;21.00;19.30;;;;;;;28.80;100.00;98907.98;105209;1271;61175;-73
2022/07/23 04:34:51;;;;;;;19.10;17.40;;;;;;;29.03;100.00;98903.38;105205;1270;61300;-73
2022/07/23 04:37:17;;;;;;;19.60;17.80;;;;;;;29.29;99.68;98902.64;105205;1271;61134;-73
2022/07/23 04:39:44;;;;;;;18.20;16.80;;;;;;;29.57;97.98;98898.52;105197;1271;61264;-73
2022/07/23 04:42:10;;;;;;;20.40;18.70;;;;;;;29.43;96.79;98898.49;105181;1271;61256;-72
2022/07/23 04:44:36;;;;;;;19.20;17.30;;;;;;;28.83;97.39;98904.41;104968;1271;61454;-73
2022/07/23 04:47:02;;;;;;;19.70;18.00;;;;;;;29.13;95.72;98903.94;104977;1271;61371;-72
2022/07/23 04:49:28;;;;;;;17.80;16.30;;;;;;;28.94;94.60;98903.45;105201;1271;61267;-73
2022/07/23 04:51:54;;;;;;;16.30;14.70;;;;;;;28.47;94.37;98900.58;105061;1271;61483;-73
2022/07/23 04:54:20;;;;;;;17.70;16.20;;;;;;;28.68;93.26;98895.88;105235;1271;61505;-73
2022/07/23 04:56:46;;;;;;;19.50;18.00;;;;;;;29.16;92.13;98898.63;105170;1271;75364;-72
2022/07/23 04:59:12;;;;;;;17.50;16.10;;;;;;;29.16;91.36;98898.87;105203;1271;61316;-72
2022/07/23 05:01:38;;;;;;;17.10;15.60;;;;;;;28.76;91.91;98903.08;105182;1270;61263;-72
2022/07/23 05:04:03;;;;;;;16.30;15.10;;;;;;;28.70;91.16;98898.87;105171;1271;61364;-73
2022/07/23 05:06:30;;;;;;;16.10;14.90;;;;;;;28.33;90.93;98899.54;105216;1271;61659;-72
2022/07/23 05:08:56;;;;;;;16.20;14.90;;;;;;;28.14;91.00;98897.48;105202;1271;61360;-73
2022/07/23 05:11:22;;;;;;;16.70;15.10;;;;;;;27.87;91.60;98893.47;104934;1271;61298;-72
2022/07/23 05:13:48;;;;;;;16.60;15.00;;;;;;;27.41;92.31;98897.73;104941;1271;61541;-72
2022/07/23 05:16:14;;;;;;;15.80;14.50;;;;;;;27.10;93.29;98903.30;105225;1271;61229;-73
2022/07/23 05:18:40;;;;;;;16.10;14.70;;;;;;;27.31;93.07;98902.30;104934;1271;75276;-73
2022/07/23 05:21:06;;;;;;;16.60;14.50;;;;;;;27.64;91.94;98902.77;105238;1270;61295;-73
2022/07/23 05:23:32;;;;;;;16.10;14.70;;;;;;;28.10;91.28;98907.00;105160;1269;61377;-72
2022/07/23 05:25:58;;;;;;;16.20;14.70;;;;;;;28.68;90.08;98906.48;105186;1271;61319;-73
2022/07/23 05:28:24;;;;;;;15.70;14.30;;;;;;;29.36;89.36;98904.60;104929;1271;61511;-73
2022/07/23 05:30:50;;;;;;;16.20;14.80;;;;;;;29.92;87.46;98898.64;105181;1271;61265;-73
2022/07/23 05:33:19;;;;;;;15.50;14.00;;;;;;;30.35;85.74;98895.29;105201;1271;61486;-74
2022/07/23 05:35:45;;;;;;;16.10;14.60;;;;;;;30.89;84.17;98893.47;105430;1271;61288;-73
2022/07/23 05:38:11;;;;;;;15.90;14.60;;;;;;;31.39;82.43;98885.72;105193;1271;61295;-75
2022/07/23 05:40:37;;;;;;;16.00;14.40;;;;;;;31.74;79.88;98888.91;105236;1271;61275;-74
2022/07/23 05:43:03;;;;;;;15.10;13.70;;;;;;;31.61;77.56;98885.98;105192;1271;61374;-75
2022/07/23 05:45:29;;;;;;;15.70;14.40;;;;;;;31.47;76.92;98887.23;105199;1269;61296;-73
2022/07/23 05:47:55;;;;;;;15.20;13.90;;;;;;;31.57;76.68;98880.79;105165;1270;61364;-73
2022/07/23 05:50:21;;;;;;;15.70;14.40;;;;;;;31.71;75.61;98880.95;104995;1272;61288;-73
2022/07/23 05:52:48;;;;;;;14.80;13.40;;;;;;;31.64;74.91;98873.59;105175;1271;76581;-72
2022/07/23 05:55:14;;;;;;;14.20;13.00;;;;;;;31.59;72.21;98872.51;105212;1271;68363;-73
2022/07/23 05:57:41;;;;;;;15.30;13.90;;;;;;;31.52;70.20;98865.77;105294;1271;61292;-74
2022/07/23 06:00:09;;;;;;;21.80;13.10;;;;;;;31.66;70.59;98863.73;105154;1271;61371;-73
2022/07/23 06:02:35;;;;;;;15.60;14.10;;;;;;;31.85;69.95;98861.97;105194;1271;61748;-73
2022/07/23 06:05:03;;;;;;;14.30;13.00;;;;;;;31.92;68.65;98859.02;105136;1271;61375;-73
2022/07/23 06:07:29;;;;;;;13.90;12.70;;;;;;;32.12;69.09;98856.52;105002;1271;70213;-73
2022/07/23 06:09:55;;;;;;;15.30;14.00;;;;;;;32.12;67.39;98851.11;105142;1271;61396;-73
2022/07/23 06:12:21;;;;;;;14.70;13.10;;;;;;;32.01;66.73;98843.08;105118;1271;61322;-74
2022/07/23 06:14:49;;;;;;;15.40;14.10;;;;;;;32.03;66.75;98847.52;104810;1271;61293;-73
2022/07/23 06:17:15;;;;;;;14.80;13.60;;;;;;;32.21;66.68;98851.08;105195;1271;61275;-72
2022/07/23 06:19:41;;;;;;;15.70;14.30;;;;;;;32.38;66.67;98847.15;105217;1271;61407;-73
2022/07/23 06:22:07;;;;;;;17.80;16.20;;;;;;;32.62;66.33;98849.79;105200;1271;61307;-73
2022/07/23 06:24:33;;;;;;;17.70;16.10;;;;;;;32.47;65.92;98851.41;105112;1271;61370;-72
2022/07/23 06:26:59;;;;;;;16.80;15.10;;;;;;;32.56;66.75;98850.89;105176;1271;61375;-73
2022/07/23 06:29:25;;;;;;;17.60;16.30;;;;;;;32.63;66.61;98850.19;105122;1270;61317;-73
2022/07/23 06:31:51;;;;;;;17.40;15.90;;;;;;;32.71;66.17;98846.08;105210;1270;61370;-73
2022/07/23 06:34:17;;;;;;;16.50;15.10;;;;;;;32.51;66.46;98841.71;105223;1271;61294;-73
2022/07/23 06:36:43;;;;;;;18.40;16.80;;;;;;;32.51;66.28;98844.25;105213;1271;61247;-74
2022/07/23 06:39:09;;;;;;;17.70;16.10;;;;;;;32.60;66.58;98841.81;105199;1270;61161;-74
2022/07/23 06:41:35;;;;;;;17.10;15.70;;;;;;;32.41;65.79;98844.50;105202;1271;61368;-75
2022/07/23 06:44:01;;;;;;;18.00;16.60;;;;;;;32.32;67.04;98845.13;105219;1270;61310;-73
2022/07/23 06:46:27;;;;;;;17.80;16.30;;;;;;;32.53;67.06;98843.89;105201;1271;61316;-73
2022/07/23 06:48:53;;;;;;;15.80;14.60;;;;;;;32.63;66.36;98845.06;105181;1271;61271;-72
2022/07/23 06:51:19;;;;;;;14.50;13.30;;;;;;;32.73;65.70;98843.06;105186;1271;61294;-74
2022/07/23 06:53:45;;;;;;;14.70;13.40;;;;;;;32.82;65.39;98845.31;105158;1271;61240;-74
2022/07/23 06:56:11;;;;;;;13.50;12.30;;;;;;;32.94;64.06;98840.70;105186;1271;61379;-74
2022/07/23 06:58:37;;;;;;;13.70;12.40;;;;;;;33.15;63.56;98840.83;105242;1271;61199;-72
2022/07/23 07:01:03;;;;;;;13.90;12.70;;;;;;;33.23;61.67;98839.86;105192;1270;61324;-73
2022/07/23 07:03:29;;;;;;;14.20;12.80;;;;;;;33.35;60.47;98837.98;105210;1271;61316;-74
2022/07/23 07:05:57;;;;;;;12.30;11.20;;;;;;;33.49;59.28;98830.22;105047;1271;61196;-72
2022/07/23 07:08:24;;;;;;;13.80;12.60;;;;;;;33.56;58.68;98831.10;105157;1271;61563;-74
2022/07/23 07:10:50;;;;;;;14.00;12.80;;;;;;;33.62;57.63;98837.37;105209;1271;61987;-75
2022/07/23 07:13:16;;;;;;;13.50;12.40;;;;;;;33.74;56.46;98840.79;104978;1271;76363;-74
2022/07/23 07:15:42;;;;;;;13.10;11.90;;;;;;;33.75;54.83;98841.56;105134;1271;61352;-74
2022/07/23 07:18:08;;;;;;;13.80;12.70;;;;;;;33.52;54.26;98842.35;105188;1271;61329;-74
2022/07/23 07:20:34;;;;;;;12.80;11.80;;;;;;;33.52;53.93;98839.05;104958;1271;62903;-73
2022/07/23 07:23:00;;;;;;;13.60;12.10;;;;;;;33.24;51.63;98844.34;105225;1271;61682;-73
2022/07/23 07:25:26;;;;;;;15.00;13.60;;;;;;;32.76;52.48;98842.30;105066;1271;61387;-73
2022/07/23 07:27:53;;;;;;;12.70;11.60;;;;;;;32.28;52.67;98839.99;105197;1271;61355;-72
2022/07/23 07:30:19;;;;;;;13.30;12.00;;;;;;;31.75;52.69;98833.73;105174;1270;61368;-73
2022/07/23 07:32:45;;;;;;;15.00;13.80;;;;;;;31.52;53.87;98835.32;105262;1270;61410;-73
2022/07/23 07:35:11;;;;;;;19.20;17.30;;;;;;;31.54;54.66;98836.13;105196;1271;76359;-74
2022/07/23 07:37:37;;;;;;;16.90;15.50;;;;;;;31.51;55.62;98838.89;105035;1271;61407;-73
2022/07/23 07:40:03;;;;;;;17.10;15.30;;;;;;;31.51;56.52;98841.80;104937;1271;61297;-72
2022/07/23 07:42:32;;;;;;;17.50;15.90;;;;;;;31.49;56.87;98842.86;104964;1271;61331;-72
2022/07/23 07:44:58;;;;;;;17.10;15.60;;;;;;;31.53;57.34;98844.83;105225;1271;61336;-74
2022/07/23 07:47:24;;;;;;;15.40;13.80;;;;;;;31.60;57.68;98841.38;105190;1271;61372;-73
2022/07/23 07:49:50;;;;;;;14.10;12.80;;;;;;;31.58;57.09;98839.09;105252;1271;61282;-73
2022/07/23 07:52:16;;;;;;;16.10;14.60;;;;;;;31.41;56.10;98843.41;105252;1271;61355;-73
2022/07/23 07:54:42;;;;;;;14.10;12.30;;;;;;;31.23;57.42;98839.02;104985;1271;61285;-73
2022/07/23 07:57:09;;;;;;;13.30;12.10;;;;;;;31.29;57.69;98843.17;105049;1271;61336;-74
2022/07/23 07:59:35;;;;;;;14.50;13.30;;;;;;;31.36;57.86;98846.03;105235;1271;61242;-73
2022/07/23 08:02:01;;;;;;;13.40;12.20;;;;;;;31.50;58.35;98843.87;105071;1271;61203;-72
2022/07/23 08:04:27;;;;;;;14.40;13.10;;;;;;;31.62;58.14;98840.48;105175;1271;61295;-72
2022/07/23 08:06:53;;;;;;;14.30;13.10;;;;;;;31.74;58.58;98840.42;105178;1271;61380;-73
2022/07/23 08:09:19;;;;;;;14.60;13.10;;;;;;;31.88;58.81;98840.10;105207;1271;61275;-74
2022/07/23 08:11:45;;;;;;;15.20;13.70;;;;;;;32.01;58.99;98841.25;105235;1271;69865;-73
2022/07/23 08:14:11;;;;;;;14.20;12.90;;;;;;;32.01;58.68;98842.73;104936;1271;61471;-73
2022/07/23 08:16:37;;;;;;;13.40;12.00;;;;;;;32.03;58.60;98842.23;105186;1271;61247;-73
2022/07/23 08:19:03;;;;;;;13.60;12.20;;;;;;;32.07;58.64;98841.98;105177;1271;61292;-72
2022/07/23 08:21:29;;;;;;;12.90;11.70;;;;;;;32.04;58.25;98836.08;105211;1271;61272;-73
2022/07/23 08:23:55;;;;;;;13.20;12.10;;;;;;;31.89;58.10;98830.05;104950;1271;61273;-72
2022/07/23 08:26:21;;;;;;;14.60;13.50;;;;;;;31.78;58.44;98826.49;105166;1271;61314;-72
2022/07/23 08:28:47;;;;;;;13.50;12.40;;;;;;;31.81;59.13;98821.55;105166;1271;61281;-72
2022/07/23 08:31:15;;;;;;;13.40;12.20;;;;;;;31.79;58.77;98814.35;105271;1269;61370;-72
2022/07/23 08:33:41;;;;;;;13.20;12.10;;;;;;;31.74;59.36;98805.09;104940;1271;66787;-73
2022/07/23 08:36:08;;;;;;;14.80;13.20;;;;;;;31.81;59.54;98802.04;105212;1271;61306;-72
2022/07/23 08:38:35;;;;;;;13.30;12.30;;;;;;;31.96;59.70;98804.28;105006;1271;61352;-74
2022/07/23 08:41:04;;;;;;;13.80;12.70;;;;;;;32.14;58.51;98804.79;105155;1270;61345;-73
2022/07/23 08:43:32;;;;;;;12.70;11.70;;;;;;;32.21;57.70;98805.14;105238;1274;76381;-73
2022/07/23 08:46:01;;;;;;;14.90;13.00;;;;;;;32.18;57.04;98802.23;105512;1271;70406;-72
2022/07/23 08:48:30;;;;;;;14.10;12.90;;;;;;;32.23;57.07;98803.95;105470;1271;74282;-73
2022/07/23 08:50:59;;;;;;;15.00;13.30;;;;;;;32.30;57.23;98801.31;105410;1271;61484;-73
2022/07/23 08:53:26;;;;;;;14.10;12.80;;;;;;;32.44;58.05;98802.30;105237;1271;61238;-74
2022/07/23 08:55:55;;;;;;;13.80;12.50;;;;;;;32.63;58.56;98798.88;104957;1271;75324;-74
2022/07/23 08:58:21;;;;;;;13.10;12.00;;;;;;;32.79;57.45;98798.04;104951;1271;68306;-73
2022/07/23 09:00:48;;;;;;;13.40;12.30;;;;;;;32.83;57.12;98794.21;105158;1271;61175;-74
2022/07/23 09:03:20;;;;;;;12.00;11.20;;;;;;;32.95;56.99;98794.46;105008;1272;61279;-74
2022/07/23 09:05:48;;;;;;;13.20;12.20;;;;;;;33.07;57.34;98795.36;105033;1271;61985;-72
2022/07/23 09:08:16;;;;;;;13.80;12.40;;;;;;;33.11;56.86;98802.23;105420;1271;75318;-73
2022/07/23 09:10:57;;;;;;;13.00;12.10;;;;;;;33.19;57.06;98798.64;104972;1271;69330;-73
2022/07/23 09:13:38;;;;;;;15.80;12.30;;;;;;;33.31;56.76;98800.35;105213;1271;73692;-73
2022/07/23 09:16:12;;;;;;;13.20;11.90;;;;;;;33.39;56.09;98795.60;105243;1271;61454;-74
2022/07/23 09:18:41;;;;;;;12.60;11.60;;;;;;;33.44;55.86;98798.02;105310;1271;61949;-73
2022/07/23 09:21:10;;;;;;;14.80;12.10;;;;;;;33.51;55.77;98791.89;104937;1273;76383;-73
2022/07/23 09:23:38;;;;;;;13.50;12.20;;;;;;;33.64;55.04;98796.05;104991;1271;70692;-74
2022/07/23 09:26:26;;;;;;;12.80;11.30;;;;;;;33.59;53.94;98791.52;105411;1271;73487;-73
2022/07/23 09:29:07;;;;;;;12.40;10.80;;;;;;;33.51;52.94;98791.17;105181;1271;61355;-73
2022/07/23 09:31:42;;;;;;;12.70;11.70;;;;;;;33.47;52.36;98790.50;105245;1271;61268;-72
2022/07/23 09:34:13;;;;;;;12.00;10.90;;;;;;;33.52;52.22;98789.45;105210;1271;76403;-73
2022/07/23 09:36:40;;;;;;;10.50;9.80;;;;;;;33.66;52.12;98790.66;105273;1272;69358;-75
2022/07/23 09:39:06;;;;;;;9.30;8.30;;;;;;;33.89;50.00;98788.09;105237;1269;74478;-73
2022/07/23 09:41:38;;;;;;;8.20;7.50;;;;;;;34.04;48.30;98786.79;105207;1268;61268;-74
2022/07/23 09:44:10;;;;;;;6.50;6.00;;;;;;;34.16;46.44;98785.92;105257;1268;61236;-74
2022/07/23 09:46:39;;;;;;;8.20;7.50;;;;;;;34.25;45.05;98787.21;105035;1268;239453;-74
2022/07/23 09:49:21;;;;;;;9.20;8.50;;;;;;;34.42;45.27;98785.98;105123;1272;69506;-74
2022/07/23 09:52:07;;;;;;;9.00;8.10;;;;;;;34.60;44.54;98783.06;105003;1274;74109;-74
2022/07/23 09:54:33;;;;;;;10.10;9.20;;;;;;;34.47;41.09;98782.98;105207;1269;61391;-73
2022/07/23 09:57:03;;;;;;;9.80;9.10;;;;;;;34.22;41.99;98779.94;105216;1271;62030;-74
2022/07/23 09:59:33;;;;;;;10.20;9.20;;;;;;;34.37;43.46;98783.50;105385;1268;76221;-73
2022/07/23 10:02:00;;;;;;;10.40;9.20;;;;;;;34.59;43.59;98779.50;105085;1271;67357;-73
2022/07/23 10:04:29;;;;;;;10.40;9.50;;;;;;;34.95;43.20;98776.50;105183;1269;64497;-73
2022/07/23 10:06:57;;;;;;;10.30;9.30;;;;;;;35.12;41.95;98777.64;105396;1271;61377;-73
2022/07/23 10:09:27;;;;;;;9.70;8.90;;;;;;;35.06;41.90;98775.13;105297;1268;61745;-73
2022/07/23 10:12:10;;;;;;;9.50;8.80;;;;;;;35.20;43.03;98775.66;105221;1268;76302;-73
2022/07/23 10:14:39;;;;;;;9.70;8.70;;;;;;;35.42;43.18;98771.06;105210;1269;61374;-73
2022/07/23 10:17:05;;;;;;;9.80;8.80;;;;;;;35.54;42.87;98767.02;105178;1271;74375;-73
2022/07/23 10:19:32;;;;;;;9.70;8.90;;;;;;;35.70;43.20;98765.16;105204;1268;61458;-74
2022/07/23 10:22:08;;;;;;;11.40;9.20;;;;;;;35.90;41.54;98761.67;105008;1271;61515;-73
2022/07/23 10:24:50;;;;;;;9.10;8.30;;;;;;;35.98;41.20;98757.96;105363;1270;76035;-74
2022/07/23 10:27:34;;;;;;;8.70;7.90;;;;;;;35.95;41.39;98762.01;105248;1268;61297;-73
2022/07/23 10:30:09;;;;;;;9.00;8.30;;;;;;;36.03;41.64;98762.42;105237;1268;65515;-74
2022/07/23 10:33:13;;;;;;;8.70;8.10;;;;;;;36.14;40.70;98763.23;105273;1269;61232;-73
2022/07/23 10:35:50;;;;;;;9.60;8.80;;;;;;;36.33;40.23;98759.40;105323;1269;61377;-73
2022/07/23 10:38:24;;;;;;;8.80;8.10;;;;;;;36.43;38.62;98759.36;105348;1268;66536;-75
2022/07/23 10:41:04;;;;;;;9.70;8.90;;;;;;;36.36;37.53;98758.52;105230;1271;61455;-76
2022/07/23 10:43:30;;;;;;;8.90;8.00;;;;;;;36.16;37.25;98753.52;105286;1272;65784;-74
2022/07/23 10:46:31;;;;;;;10.00;9.20;;;;;;;35.93;36.87;98754.52;105291;1272;61165;-75
2022/07/23 10:49:25;;;;;;;9.40;8.70;;;;;;;35.65;37.08;98752.83;105348;1271;61230;-74
2022/07/23 10:52:15;;;;;;;9.10;8.20;;;;;;;35.67;38.28;98745.63;105253;1272;66673;-74
2022/07/23 10:54:43;;;;;;;9.20;8.40;;;;;;;35.71;38.98;98744.04;105235;1271;61431;-74
2022/07/23 10:57:12;;;;;;;8.90;8.20;;;;;;;35.63;38.22;98743.23;105228;1274;65616;-74
2022/07/23 11:02:36;;;;;;;9.00;8.40;;;;;;;35.36;39.17;98733.19;105224;1270;61268;-74
2022/07/23 11:05:10;;;;;;;9.00;8.10;;;;;;;35.33;38.54;98728.58;105348;1268;66778;-74
2022/07/23 11:07:58;;;;;;;8.90;8.20;;;;;;;35.26;37.68;98735.42;105257;1269;61262;-74
2022/07/23 11:10:34;;;;;;;9.50;8.40;;;;;;;34.99;37.16;98731.77;105281;1274;73783;-73
2022/07/23 11:13:21;;;;;;;10.70;8.80;;;;;;;34.90;37.94;98727.77;105306;1269;61268;-73